sensor_id;sensor_type;location;lat;lon;timestamp;P1;durP1;ratioP1;P2;durP2;ratioP2
22144;SDS011;11238;48.730;11.566;2023-01-09T00:01:56;33.80;;;21.45;;
22144;SDS011;11238;48.730;11.566;2023-01-09T00:04:23;37.67;;;21.55;;
22144;SDS011;11238;48.730;11.566;2023-01-09T00:06:49;32.30;;;20.55;;
22144;SDS011;11238;48.730;11.566;2023-01-09T00:09:19;32.85;;;21.38;;
22144;SDS011;11238;48.730;11.566;2023-01-09T00:11:46;35.50;;;21.90;;
22144;SDS011;11238;48.730;11.566;2023-01-09T00:14:13;36.53;;;21.83;;
22144;SDS011;11238;48.730;11.566;2023-01-09T00:16:40;31.55;;;21.17;;
22144;SDS011;11238;48.730;11.566;2023-01-09T00:19:06;32.90;;;20.90;;
22144;SDS011;11238;48.730;11.566;2023-01-09T00:21:32;34.55;;;21.30;;
22144;SDS011;11238;48.730;11.566;2023-01-09T00:23:58;35.20;;;21.17;;
22144;SDS011;11238;48.730;11.566;2023-01-09T00:26:24;34.25;;;22.08;;
22144;SDS011;11238;48.730;11.566;2023-01-09T00:28:50;35.25;;;22.63;;
22144;SDS011;11238;48.730;11.566;2023-01-09T00:31:17;33.90;;;21.55;;
22144;SDS011;11238;48.730;11.566;2023-01-09T00:33:44;34.70;;;21.70;;
22144;SDS011;11238;48.730;11.566;2023-01-09T00:36:19;37.13;;;21.63;;
22144;SDS011;11238;48.730;11.566;2023-01-09T00:39:07;34.35;;;21.75;;
22144;SDS011;11238;48.730;11.566;2023-01-09T00:41:38;33.10;;;20.92;;
22144;SDS011;11238;48.730;11.566;2023-01-09T00:44:12;34.90;;;21.52;;
22144;SDS011;11238;48.730;11.566;2023-01-09T00:46:47;37.10;;;21.90;;
22144;SDS011;11238;48.730;11.566;2023-01-09T00:49:16;35.85;;;21.25;;
22144;SDS011;11238;48.730;11.566;2023-01-09T00:51:43;33.15;;;21.00;;
22144;SDS011;11238;48.730;11.566;2023-01-09T00:54:09;33.25;;;21.33;;
22144;SDS011;11238;48.730;11.566;2023-01-09T00:56:38;33.10;;;21.02;;
22144;SDS011;11238;48.730;11.566;2023-01-09T00:59:04;32.78;;;21.20;;
22144;SDS011;11238;48.730;11.566;2023-01-09T01:01:31;35.45;;;22.00;;
22144;SDS011;11238;48.730;11.566;2023-01-09T01:03:56;35.78;;;21.83;;
22144;SDS011;11238;48.730;11.566;2023-01-09T01:06:22;33.42;;;21.42;;
22144;SDS011;11238;48.730;11.566;2023-01-09T01:09:06;36.35;;;21.83;;
22144;SDS011;11238;48.730;11.566;2023-01-09T01:11:33;34.35;;;20.55;;
22144;SDS011;11238;48.730;11.566;2023-01-09T01:13:58;32.92;;;21.15;;
22144;SDS011;11238;48.730;11.566;2023-01-09T01:16:24;34.85;;;22.02;;
22144;SDS011;11238;48.730;11.566;2023-01-09T01:18:50;34.22;;;21.10;;
22144;SDS011;11238;48.730;11.566;2023-01-09T01:21:16;35.28;;;21.30;;
22144;SDS011;11238;48.730;11.566;2023-01-09T01:23:42;34.67;;;21.08;;
22144;SDS011;11238;48.730;11.566;2023-01-09T01:26:12;37.80;;;21.65;;
22144;SDS011;11238;48.730;11.566;2023-01-09T01:28:40;36.97;;;21.95;;
22144;SDS011;11238;48.730;11.566;2023-01-09T01:31:07;38.38;;;21.98;;
22144;SDS011;11238;48.730;11.566;2023-01-09T01:33:33;39.40;;;21.95;;
22144;SDS011;11238;48.730;11.566;2023-01-09T01:36:04;40.88;;;22.63;;
22144;SDS011;11238;48.730;11.566;2023-01-09T01:38:33;38.70;;;21.63;;
22144;SDS011;11238;48.730;11.566;2023-01-09T01:40:59;39.90;;;23.13;;
22144;SDS011;11238;48.730;11.566;2023-01-09T01:43:27;37.67;;;21.98;;
22144;SDS011;11238;48.730;11.566;2023-01-09T01:46:14;40.42;;;22.73;;
22144;SDS011;11238;48.730;11.566;2023-01-09T01:48:41;36.38;;;22.48;;
22144;SDS011;11238;48.730;11.566;2023-01-09T01:51:08;37.60;;;22.80;;
22144;SDS011;11238;48.730;11.566;2023-01-09T01:53:36;38.70;;;22.50;;
22144;SDS011;11238;48.730;11.566;2023-01-09T01:58:45;38.05;;;22.55;;
22144;SDS011;11238;48.730;11.566;2023-01-09T02:01:15;36.20;;;22.35;;
22144;SDS011;11238;48.730;11.566;2023-01-09T02:03:42;41.30;;;23.90;;
22144;SDS011;11238;48.730;11.566;2023-01-09T02:06:08;40.72;;;23.30;;
22144;SDS011;11238;48.730;11.566;2023-01-09T02:08:36;40.33;;;23.48;;
22144;SDS011;11238;48.730;11.566;2023-01-09T02:11:02;40.58;;;23.58;;
22144;SDS011;11238;48.730;11.566;2023-01-09T02:13:29;37.90;;;23.58;;
22144;SDS011;11238;48.730;11.566;2023-01-09T02:18:53;36.33;;;22.75;;
22144;SDS011;11238;48.730;11.566;2023-01-09T02:21:48;39.60;;;23.27;;
22144;SDS011;11238;48.730;11.566;2023-01-09T02:27:22;38.97;;;22.48;;
22144;SDS011;11238;48.730;11.566;2023-01-09T02:35:52;37.08;;;22.45;;
22144;SDS011;11238;48.730;11.566;2023-01-09T02:41:04;35.67;;;21.67;;
22144;SDS011;11238;48.730;11.566;2023-01-09T02:43:37;35.30;;;21.65;;
22144;SDS011;11238;48.730;11.566;2023-01-09T02:46:05;35.25;;;22.17;;
22144;SDS011;11238;48.730;11.566;2023-01-09T02:48:36;35.67;;;21.38;;
22144;SDS011;11238;48.730;11.566;2023-01-09T02:53:35;36.20;;;22.95;;
22144;SDS011;11238;48.730;11.566;2023-01-09T03:04:43;36.13;;;20.77;;
22144;SDS011;11238;48.730;11.566;2023-01-09T03:07:28;36.30;;;21.35;;
22144;SDS011;11238;48.730;11.566;2023-01-09T03:10:07;36.42;;;21.20;;
22144;SDS011;11238;48.730;11.566;2023-01-09T03:12:41;36.53;;;22.17;;
22144;SDS011;11238;48.730;11.566;2023-01-09T03:15:07;37.50;;;21.17;;
22144;SDS011;11238;48.730;11.566;2023-01-09T03:17:38;33.38;;;21.42;;
22144;SDS011;11238;48.730;11.566;2023-01-09T03:20:10;31.55;;;20.55;;
22144;SDS011;11238;48.730;11.566;2023-01-09T03:22:39;37.28;;;21.55;;
22144;SDS011;11238;48.730;11.566;2023-01-09T03:25:10;34.65;;;21.48;;
22144;SDS011;11238;48.730;11.566;2023-01-09T03:27:37;36.30;;;22.08;;
22144;SDS011;11238;48.730;11.566;2023-01-09T03:30:03;36.47;;;21.17;;
22144;SDS011;11238;48.730;11.566;2023-01-09T03:32:29;36.28;;;21.20;;
22144;SDS011;11238;48.730;11.566;2023-01-09T03:34:55;35.15;;;21.40;;
22144;SDS011;11238;48.730;11.566;2023-01-09T03:37:21;32.60;;;20.73;;
22144;SDS011;11238;48.730;11.566;2023-01-09T03:39:46;34.75;;;21.00;;
22144;SDS011;11238;48.730;11.566;2023-01-09T03:42:12;34.28;;;21.05;;
22144;SDS011;11238;48.730;11.566;2023-01-09T03:44:37;34.95;;;21.17;;
22144;SDS011;11238;48.730;11.566;2023-01-09T03:47:04;31.65;;;21.02;;
22144;SDS011;11238;48.730;11.566;2023-01-09T03:49:29;32.42;;;20.20;;
22144;SDS011;11238;48.730;11.566;2023-01-09T03:51:55;34.92;;;21.38;;
22144;SDS011;11238;48.730;11.566;2023-01-09T03:54:21;36.38;;;21.77;;
22144;SDS011;11238;48.730;11.566;2023-01-09T03:56:46;34.30;;;21.67;;
22144;SDS011;11238;48.730;11.566;2023-01-09T03:59:12;37.25;;;22.33;;
22144;SDS011;11238;48.730;11.566;2023-01-09T04:01:38;40.33;;;24.35;;
22144;SDS011;11238;48.730;11.566;2023-01-09T04:04:04;37.78;;;23.17;;
22144;SDS011;11238;48.730;11.566;2023-01-09T04:06:30;36.22;;;24.00;;
22144;SDS011;11238;48.730;11.566;2023-01-09T04:08:55;36.92;;;22.58;;
22144;SDS011;11238;48.730;11.566;2023-01-09T04:11:21;35.63;;;22.15;;
22144;SDS011;11238;48.730;11.566;2023-01-09T04:13:47;36.25;;;22.50;;
22144;SDS011;11238;48.730;11.566;2023-01-09T04:16:12;34.60;;;22.33;;
22144;SDS011;11238;48.730;11.566;2023-01-09T04:18:38;34.67;;;21.50;;
22144;SDS011;11238;48.730;11.566;2023-01-09T04:21:04;33.33;;;20.55;;
22144;SDS011;11238;48.730;11.566;2023-01-09T04:23:30;35.08;;;22.00;;
22144;SDS011;11238;48.730;11.566;2023-01-09T04:25:55;34.08;;;20.73;;
22144;SDS011;11238;48.730;11.566;2023-01-09T04:28:21;34.83;;;20.70;;
22144;SDS011;11238;48.730;11.566;2023-01-09T04:30:47;32.90;;;20.15;;
22144;SDS011;11238;48.730;11.566;2023-01-09T04:33:12;33.65;;;20.88;;
22144;SDS011;11238;48.730;11.566;2023-01-09T04:35:38;31.42;;;20.85;;
22144;SDS011;11238;48.730;11.566;2023-01-09T04:38:04;35.45;;;22.52;;
22144;SDS011;11238;48.730;11.566;2023-01-09T04:40:30;34.95;;;21.38;;
22144;SDS011;11238;48.730;11.566;2023-01-09T04:42:56;37.13;;;22.08;;
22144;SDS011;11238;48.730;11.566;2023-01-09T04:45:21;36.30;;;21.63;;
22144;SDS011;11238;48.730;11.566;2023-01-09T04:47:47;35.70;;;22.55;;
22144;SDS011;11238;48.730;11.566;2023-01-09T04:50:13;39.35;;;22.75;;
22144;SDS011;11238;48.730;11.566;2023-01-09T04:52:39;34.63;;;21.48;;
22144;SDS011;11238;48.730;11.566;2023-01-09T04:55:05;35.55;;;21.92;;
22144;SDS011;11238;48.730;11.566;2023-01-09T04:57:32;34.58;;;21.73;;
22144;SDS011;11238;48.730;11.566;2023-01-09T04:59:58;34.63;;;21.40;;
22144;SDS011;11238;48.730;11.566;2023-01-09T05:02:24;36.88;;;22.23;;
22144;SDS011;11238;48.730;11.566;2023-01-09T05:04:50;35.00;;;21.73;;
22144;SDS011;11238;48.730;11.566;2023-01-09T05:07:16;35.90;;;22.35;;
22144;SDS011;11238;48.730;11.566;2023-01-09T05:09:42;40.85;;;22.88;;
22144;SDS011;11238;48.730;11.566;2023-01-09T05:12:08;38.45;;;21.90;;
22144;SDS011;11238;48.730;11.566;2023-01-09T05:14:34;38.67;;;21.75;;
22144;SDS011;11238;48.730;11.566;2023-01-09T05:17:00;40.42;;;21.73;;
22144;SDS011;11238;48.730;11.566;2023-01-09T05:19:26;33.53;;;21.33;;
22144;SDS011;11238;48.730;11.566;2023-01-09T05:21:52;34.33;;;21.10;;
22144;SDS011;11238;48.730;11.566;2023-01-09T05:24:18;41.97;;;22.58;;
22144;SDS011;11238;48.730;11.566;2023-01-09T05:26:44;35.17;;;21.90;;
22144;SDS011;11238;48.730;11.566;2023-01-09T05:29:10;35.53;;;21.23;;
22144;SDS011;11238;48.730;11.566;2023-01-09T05:31:36;35.72;;;21.30;;
22144;SDS011;11238;48.730;11.566;2023-01-09T05:34:02;33.13;;;20.00;;
22144;SDS011;11238;48.730;11.566;2023-01-09T05:36:28;31.88;;;19.90;;
22144;SDS011;11238;48.730;11.566;2023-01-09T05:38:53;32.60;;;20.45;;
22144;SDS011;11238;48.730;11.566;2023-01-09T05:41:22;34.05;;;21.55;;
22144;SDS011;11238;48.730;11.566;2023-01-09T05:43:48;30.55;;;20.00;;
22144;SDS011;11238;48.730;11.566;2023-01-09T05:46:14;33.58;;;19.58;;
22144;SDS011;11238;48.730;11.566;2023-01-09T05:48:40;32.47;;;20.33;;
22144;SDS011;11238;48.730;11.566;2023-01-09T05:51:06;32.83;;;20.85;;
22144;SDS011;11238;48.730;11.566;2023-01-09T05:53:32;34.88;;;20.33;;
22144;SDS011;11238;48.730;11.566;2023-01-09T05:55:58;35.47;;;20.52;;
22144;SDS011;11238;48.730;11.566;2023-01-09T05:58:23;33.67;;;20.63;;
22144;SDS011;11238;48.730;11.566;2023-01-09T06:00:51;32.88;;;20.75;;
22144;SDS011;11238;48.730;11.566;2023-01-09T06:03:17;31.13;;;19.80;;
22144;SDS011;11238;48.730;11.566;2023-01-09T06:05:43;32.92;;;19.73;;
22144;SDS011;11238;48.730;11.566;2023-01-09T06:08:08;33.22;;;20.38;;
22144;SDS011;11238;48.730;11.566;2023-01-09T06:10:35;33.45;;;20.38;;
22144;SDS011;11238;48.730;11.566;2023-01-09T06:13:01;31.98;;;19.88;;
22144;SDS011;11238;48.730;11.566;2023-01-09T06:15:26;32.78;;;20.48;;
22144;SDS011;11238;48.730;11.566;2023-01-09T06:17:52;31.67;;;19.27;;
22144;SDS011;11238;48.730;11.566;2023-01-09T06:20:18;35.83;;;20.38;;
22144;SDS011;11238;48.730;11.566;2023-01-09T06:22:43;28.67;;;18.35;;
22144;SDS011;11238;48.730;11.566;2023-01-09T06:25:10;31.42;;;18.33;;
22144;SDS011;11238;48.730;11.566;2023-01-09T06:27:37;27.23;;;18.33;;
22144;SDS011;11238;48.730;11.566;2023-01-09T06:30:02;30.75;;;17.90;;
22144;SDS011;11238;48.730;11.566;2023-01-09T06:32:28;27.23;;;16.70;;
22144;SDS011;11238;48.730;11.566;2023-01-09T06:34:54;28.00;;;16.90;;
22144;SDS011;11238;48.730;11.566;2023-01-09T06:37:20;25.00;;;16.15;;
22144;SDS011;11238;48.730;11.566;2023-01-09T06:39:46;26.05;;;16.13;;
22144;SDS011;11238;48.730;11.566;2023-01-09T06:42:11;25.08;;;15.43;;
22144;SDS011;11238;48.730;11.566;2023-01-09T06:44:37;28.02;;;16.98;;
22144;SDS011;11238;48.730;11.566;2023-01-09T06:47:03;27.55;;;17.17;;
22144;SDS011;11238;48.730;11.566;2023-01-09T06:49:29;27.30;;;16.25;;
22144;SDS011;11238;48.730;11.566;2023-01-09T06:51:54;27.98;;;16.25;;
22144;SDS011;11238;48.730;11.566;2023-01-09T06:54:20;24.17;;;14.50;;
22144;SDS011;11238;48.730;11.566;2023-01-09T06:56:46;32.95;;;18.33;;
22144;SDS011;11238;48.730;11.566;2023-01-09T06:59:12;33.50;;;19.27;;
22144;SDS011;11238;48.730;11.566;2023-01-09T07:01:38;33.17;;;19.05;;
22144;SDS011;11238;48.730;11.566;2023-01-09T07:04:08;8.57;;;5.70;;
22144;SDS011;11238;48.730;11.566;2023-01-09T07:06:36;7.00;;;5.35;;
22144;SDS011;11238;48.730;11.566;2023-01-09T07:09:02;4.38;;;3.60;;
22144;SDS011;11238;48.730;11.566;2023-01-09T07:11:30;6.00;;;3.53;;
22144;SDS011;11238;48.730;11.566;2023-01-09T07:13:57;6.95;;;3.25;;
22144;SDS011;11238;48.730;11.566;2023-01-09T07:16:22;5.07;;;2.75;;
22144;SDS011;11238;48.730;11.566;2023-01-09T07:18:49;3.47;;;2.50;;
22144;SDS011;11238;48.730;11.566;2023-01-09T07:21:14;5.20;;;3.30;;
22144;SDS011;11238;48.730;11.566;2023-01-09T07:23:40;5.13;;;2.92;;
22144;SDS011;11238;48.730;11.566;2023-01-09T07:26:06;3.28;;;2.80;;
22144;SDS011;11238;48.730;11.566;2023-01-09T07:28:33;5.13;;;3.30;;
22144;SDS011;11238;48.730;11.566;2023-01-09T07:30:58;5.20;;;2.97;;
22144;SDS011;11238;48.730;11.566;2023-01-09T07:33:29;5.25;;;2.60;;
22144;SDS011;11238;48.730;11.566;2023-01-09T07:35:54;4.30;;;2.60;;
22144;SDS011;11238;48.730;11.566;2023-01-09T07:38:20;3.45;;;2.17;;
22144;SDS011;11238;48.730;11.566;2023-01-09T07:40:46;2.90;;;1.90;;
22144;SDS011;11238;48.730;11.566;2023-01-09T07:43:12;2.00;;;1.80;;
22144;SDS011;11238;48.730;11.566;2023-01-09T07:45:38;2.65;;;2.00;;
22144;SDS011;11238;48.730;11.566;2023-01-09T07:48:03;2.55;;;2.00;;
22144;SDS011;11238;48.730;11.566;2023-01-09T07:50:29;4.10;;;2.10;;
22144;SDS011;11238;48.730;11.566;2023-01-09T07:52:55;1.90;;;1.67;;
22144;SDS011;11238;48.730;11.566;2023-01-09T07:55:21;3.03;;;1.70;;
22144;SDS011;11238;48.730;11.566;2023-01-09T07:57:48;3.17;;;1.60;;
22144;SDS011;11238;48.730;11.566;2023-01-09T08:00:15;6.35;;;1.55;;
22144;SDS011;11238;48.730;11.566;2023-01-09T08:02:42;1.33;;;1.20;;
22144;SDS011;11238;48.730;11.566;2023-01-09T08:05:08;2.00;;;0.95;;
22144;SDS011;11238;48.730;11.566;2023-01-09T08:07:37;2.78;;;1.00;;
22144;SDS011;11238;48.730;11.566;2023-01-09T08:10:03;1.88;;;1.00;;
22144;SDS011;11238;48.730;11.566;2023-01-09T08:12:29;2.30;;;0.98;;
22144;SDS011;11238;48.730;11.566;2023-01-09T08:14:55;0.90;;;0.90;;
22144;SDS011;11238;48.730;11.566;2023-01-09T08:17:21;1.50;;;0.90;;
22144;SDS011;11238;48.730;11.566;2023-01-09T08:19:46;0.90;;;0.82;;
22144;SDS011;11238;48.730;11.566;2023-01-09T08:22:12;2.10;;;1.02;;
22144;SDS011;11238;48.730;11.566;2023-01-09T08:24:38;2.50;;;1.10;;
22144;SDS011;11238;48.730;11.566;2023-01-09T08:27:04;2.60;;;0.85;;
22144;SDS011;11238;48.730;11.566;2023-01-09T08:29:29;2.22;;;1.10;;
22144;SDS011;11238;48.730;11.566;2023-01-09T08:31:55;2.25;;;0.98;;
22144;SDS011;11238;48.730;11.566;2023-01-09T08:34:21;0.80;;;0.80;;
22144;SDS011;11238;48.730;11.566;2023-01-09T08:36:46;0.90;;;0.90;;
22144;SDS011;11238;48.730;11.566;2023-01-09T08:39:12;1.05;;;0.80;;
22144;SDS011;11238;48.730;11.566;2023-01-09T08:41:38;3.53;;;0.93;;
22144;SDS011;11238;48.730;11.566;2023-01-09T08:44:22;0.80;;;0.80;;
22144;SDS011;11238;48.730;11.566;2023-01-09T08:47:07;0.80;;;0.80;;
22144;SDS011;11238;48.730;11.566;2023-01-09T08:49:33;1.35;;;0.80;;
22144;SDS011;11238;48.730;11.566;2023-01-09T08:52:01;2.40;;;0.80;;
22144;SDS011;11238;48.730;11.566;2023-01-09T08:54:27;1.33;;;0.73;;
22144;SDS011;11238;48.730;11.566;2023-01-09T08:56:53;0.80;;;0.80;;
22144;SDS011;11238;48.730;11.566;2023-01-09T08:59:19;1.55;;;0.88;;
22144;SDS011;11238;48.730;11.566;2023-01-09T09:01:45;2.42;;;0.82;;
22144;SDS011;11238;48.730;11.566;2023-01-09T09:04:11;1.02;;;0.80;;
22144;SDS011;11238;48.730;11.566;2023-01-09T09:06:37;1.23;;;0.90;;
22144;SDS011;11238;48.730;11.566;2023-01-09T09:09:03;0.70;;;0.70;;
22144;SDS011;11238;48.730;11.566;2023-01-09T09:11:31;2.08;;;0.80;;
22144;SDS011;11238;48.730;11.566;2023-01-09T09:13:57;1.25;;;0.75;;
22144;SDS011;11238;48.730;11.566;2023-01-09T09:16:23;0.95;;;0.80;;
22144;SDS011;11238;48.730;11.566;2023-01-09T09:18:50;0.73;;;0.70;;
22144;SDS011;11238;48.730;11.566;2023-01-09T09:21:16;0.82;;;0.70;;
22144;SDS011;11238;48.730;11.566;2023-01-09T09:23:42;1.90;;;0.85;;
22144;SDS011;11238;48.730;11.566;2023-01-09T09:26:08;3.13;;;0.93;;
22144;SDS011;11238;48.730;11.566;2023-01-09T09:28:35;2.03;;;0.90;;
22144;SDS011;11238;48.730;11.566;2023-01-09T09:31:03;0.80;;;0.80;;
22144;SDS011;11238;48.730;11.566;2023-01-09T09:33:29;1.42;;;0.85;;
22144;SDS011;11238;48.730;11.566;2023-01-09T09:35:57;2.00;;;0.82;;
22144;SDS011;11238;48.730;11.566;2023-01-09T09:38:23;1.15;;;1.05;;
22144;SDS011;11238;48.730;11.566;2023-01-09T09:46:43;1.90;;;0.95;;
22144;SDS011;11238;48.730;11.566;2023-01-09T09:49:21;1.65;;;0.80;;
22144;SDS011;11238;48.730;11.566;2023-01-09T09:51:55;0.80;;;0.80;;
22144;SDS011;11238;48.730;11.566;2023-01-09T09:54:38;2.38;;;0.82;;
22144;SDS011;11238;48.730;11.566;2023-01-09T09:57:09;1.10;;;0.80;;
22144;SDS011;11238;48.730;11.566;2023-01-09T09:59:40;0.90;;;0.80;;
22144;SDS011;11238;48.730;11.566;2023-01-09T10:04:34;1.38;;;0.90;;
22144;SDS011;11238;48.730;11.566;2023-01-09T10:07:06;1.15;;;0.90;;
22144;SDS011;11238;48.730;11.566;2023-01-09T10:12:27;3.75;;;0.93;;
22144;SDS011;11238;48.730;11.566;2023-01-09T10:14:54;2.80;;;1.00;;
22144;SDS011;11238;48.730;11.566;2023-01-09T10:20:07;1.55;;;0.90;;
22144;SDS011;11238;48.730;11.566;2023-01-09T10:26:00;1.17;;;0.80;;
22144;SDS011;11238;48.730;11.566;2023-01-09T10:29:12;2.00;;;0.90;;
22144;SDS011;11238;48.730;11.566;2023-01-09T10:32:09;1.60;;;0.75;;
22144;SDS011;11238;48.730;11.566;2023-01-09T10:37:48;1.00;;;0.80;;
22144;SDS011;11238;48.730;11.566;2023-01-09T10:40:21;2.05;;;0.90;;
22144;SDS011;11238;48.730;11.566;2023-01-09T10:43:24;1.40;;;1.02;;
22144;SDS011;11238;48.730;11.566;2023-01-09T10:45:47;0.88;;;0.73;;
22144;SDS011;11238;48.730;11.566;2023-01-09T10:51:15;3.08;;;0.85;;
22144;SDS011;11238;48.730;11.566;2023-01-09T10:53:45;2.38;;;1.20;;
22144;SDS011;11238;48.730;11.566;2023-01-09T10:56:22;4.40;;;1.10;;
22144;SDS011;11238;48.730;11.566;2023-01-09T10:58:51;2.42;;;1.02;;
22144;SDS011;11238;48.730;11.566;2023-01-09T11:01:19;5.85;;;1.20;;
22144;SDS011;11238;48.730;11.566;2023-01-09T11:03:50;3.00;;;0.82;;
22144;SDS011;11238;48.730;11.566;2023-01-09T11:06:39;3.45;;;0.90;;
22144;SDS011;11238;48.730;11.566;2023-01-09T11:09:07;3.22;;;0.90;;
22144;SDS011;11238;48.730;11.566;2023-01-09T11:11:38;3.60;;;1.13;;
22144;SDS011;11238;48.730;11.566;2023-01-09T11:19:17;1.73;;;0.80;;
22144;SDS011;11238;48.730;11.566;2023-01-09T11:21:43;3.55;;;1.00;;
22144;SDS011;11238;48.730;11.566;2023-01-09T11:26:47;2.83;;;1.15;;
22144;SDS011;11238;48.730;11.566;2023-01-09T11:29:18;2.33;;;0.90;;
22144;SDS011;11238;48.730;11.566;2023-01-09T11:31:55;3.30;;;1.17;;
22144;SDS011;11238;48.730;11.566;2023-01-09T11:34:26;4.20;;;1.08;;
22144;SDS011;11238;48.730;11.566;2023-01-09T11:39:31;5.15;;;1.00;;
22144;SDS011;11238;48.730;11.566;2023-01-09T11:42:03;3.88;;;1.00;;
22144;SDS011;11238;48.730;11.566;2023-01-09T11:44:30;7.45;;;2.55;;
22144;SDS011;11238;48.730;11.566;2023-01-09T11:46:57;8.98;;;4.88;;
22144;SDS011;11238;48.730;11.566;2023-01-09T11:49:24;5.00;;;0.98;;
22144;SDS011;11238;48.730;11.566;2023-01-09T11:54:43;3.47;;;1.08;;
22144;SDS011;11238;48.730;11.566;2023-01-09T11:57:12;4.15;;;1.00;;
22144;SDS011;11238;48.730;11.566;2023-01-09T11:59:38;2.28;;;1.15;;
22144;SDS011;11238;48.730;11.566;2023-01-09T12:05:11;2.63;;;1.13;;
22144;SDS011;11238;48.730;11.566;2023-01-09T12:11:07;4.13;;;1.13;;
22144;SDS011;11238;48.730;11.566;2023-01-09T12:13:50;4.32;;;0.88;;
22144;SDS011;11238;48.730;11.566;2023-01-09T12:16:49;3.35;;;0.98;;
22144;SDS011;11238;48.730;11.566;2023-01-09T12:19:24;5.28;;;1.30;;
22144;SDS011;11238;48.730;11.566;2023-01-09T12:22:31;3.03;;;0.98;;
22144;SDS011;11238;48.730;11.566;2023-01-09T12:33:22;4.70;;;1.25;;
22144;SDS011;11238;48.730;11.566;2023-01-09T12:39:05;5.20;;;1.42;;
22144;SDS011;11238;48.730;11.566;2023-01-09T12:44:35;4.72;;;1.10;;
22144;SDS011;11238;48.730;11.566;2023-01-09T12:47:29;2.97;;;1.10;;
22144;SDS011;11238;48.730;11.566;2023-01-09T12:50:19;2.92;;;1.00;;
22144;SDS011;11238;48.730;11.566;2023-01-09T12:53:25;4.22;;;1.08;;
22144;SDS011;11238;48.730;11.566;2023-01-09T12:55:58;7.63;;;1.30;;
22144;SDS011;11238;48.730;11.566;2023-01-09T12:58:48;6.03;;;1.30;;
22144;SDS011;11238;48.730;11.566;2023-01-09T13:01:20;3.67;;;1.30;;
22144;SDS011;11238;48.730;11.566;2023-01-09T13:06:42;3.67;;;1.23;;
22144;SDS011;11238;48.730;11.566;2023-01-09T13:09:19;3.92;;;1.17;;
22144;SDS011;11238;48.730;11.566;2023-01-09T13:12:34;3.05;;;1.00;;
22144;SDS011;11238;48.730;11.566;2023-01-09T13:17:22;8.13;;;1.42;;
22144;SDS011;11238;48.730;11.566;2023-01-09T13:19:54;5.13;;;1.15;;
22144;SDS011;11238;48.730;11.566;2023-01-09T13:22:20;4.15;;;1.20;;
22144;SDS011;11238;48.730;11.566;2023-01-09T13:25:00;5.65;;;1.45;;
22144;SDS011;11238;48.730;11.566;2023-01-09T13:27:38;3.25;;;1.10;;
22144;SDS011;11238;48.730;11.566;2023-01-09T13:30:15;2.83;;;1.02;;
22144;SDS011;11238;48.730;11.566;2023-01-09T13:32:48;2.08;;;1.15;;
22144;SDS011;11238;48.730;11.566;2023-01-09T13:35:30;7.50;;;1.50;;
22144;SDS011;11238;48.730;11.566;2023-01-09T13:37:56;2.65;;;1.10;;
22144;SDS011;11238;48.730;11.566;2023-01-09T13:42:57;3.72;;;1.20;;
22144;SDS011;11238;48.730;11.566;2023-01-09T13:45:28;4.40;;;1.00;;
22144;SDS011;11238;48.730;11.566;2023-01-09T13:50:39;3.97;;;2.90;;
22144;SDS011;11238;48.730;11.566;2023-01-09T13:58:26;8.18;;;4.32;;
22144;SDS011;11238;48.730;11.566;2023-01-09T14:06:39;2.33;;;1.02;;
22144;SDS011;11238;48.730;11.566;2023-01-09T14:11:42;3.55;;;1.20;;
22144;SDS011;11238;48.730;11.566;2023-01-09T14:14:30;2.58;;;1.02;;
22144;SDS011;11238;48.730;11.566;2023-01-09T14:16:57;6.07;;;1.10;;
22144;SDS011;11238;48.730;11.566;2023-01-09T14:19:37;4.50;;;1.23;;
22144;SDS011;11238;48.730;11.566;2023-01-09T14:22:04;7.22;;;1.40;;
22144;SDS011;11238;48.730;11.566;2023-01-09T14:24:32;3.90;;;1.30;;
22144;SDS011;11238;48.730;11.566;2023-01-09T14:27:08;4.72;;;2.17;;
22144;SDS011;11238;48.730;11.566;2023-01-09T14:32:54;5.20;;;1.27;;
22144;SDS011;11238;48.730;11.566;2023-01-09T14:35:33;2.63;;;0.95;;
22144;SDS011;11238;48.730;11.566;2023-01-09T14:40:59;3.83;;;1.13;;
22144;SDS011;11238;48.730;11.566;2023-01-09T14:43:44;3.22;;;1.20;;
22144;SDS011;11238;48.730;11.566;2023-01-09T14:46:12;2.47;;;0.90;;
22144;SDS011;11238;48.730;11.566;2023-01-09T14:48:41;3.50;;;1.00;;
22144;SDS011;11238;48.730;11.566;2023-01-09T14:51:21;3.15;;;1.05;;
22144;SDS011;11238;48.730;11.566;2023-01-09T14:53:50;4.75;;;1.27;;
22144;SDS011;11238;48.730;11.566;2023-01-09T14:56:24;3.15;;;0.98;;
22144;SDS011;11238;48.730;11.566;2023-01-09T14:59:05;2.08;;;1.00;;
22144;SDS011;11238;48.730;11.566;2023-01-09T15:01:35;3.67;;;1.20;;
22144;SDS011;11238;48.730;11.566;2023-01-09T15:04:03;4.22;;;1.40;;
22144;SDS011;11238;48.730;11.566;2023-01-09T15:06:36;3.38;;;1.02;;
22144;SDS011;11238;48.730;11.566;2023-01-09T15:09:11;1.77;;;1.13;;
22144;SDS011;11238;48.730;11.566;2023-01-09T15:11:47;4.10;;;1.27;;
22144;SDS011;11238;48.730;11.566;2023-01-09T15:14:33;3.53;;;1.15;;
22144;SDS011;11238;48.730;11.566;2023-01-09T15:17:04;2.08;;;1.10;;
22144;SDS011;11238;48.730;11.566;2023-01-09T15:19:31;3.20;;;1.00;;
22144;SDS011;11238;48.730;11.566;2023-01-09T15:22:04;5.28;;;1.30;;
22144;SDS011;11238;48.730;11.566;2023-01-09T15:24:44;3.58;;;1.20;;
22144;SDS011;11238;48.730;11.566;2023-01-09T15:27:10;3.85;;;1.20;;
22144;SDS011;11238;48.730;11.566;2023-01-09T15:29:39;3.22;;;1.20;;
22144;SDS011;11238;48.730;11.566;2023-01-09T15:32:14;3.00;;;0.98;;
22144;SDS011;11238;48.730;11.566;2023-01-09T15:34:42;5.35;;;1.25;;
22144;SDS011;11238;48.730;11.566;2023-01-09T15:37:17;5.00;;;1.23;;
22144;SDS011;11238;48.730;11.566;2023-01-09T15:39:51;4.93;;;1.20;;
22144;SDS011;11238;48.730;11.566;2023-01-09T15:42:22;3.28;;;1.13;;
22144;SDS011;11238;48.730;11.566;2023-01-09T15:45:13;4.00;;;1.45;;
22144;SDS011;11238;48.730;11.566;2023-01-09T15:47:48;3.63;;;1.10;;
22144;SDS011;11238;48.730;11.566;2023-01-09T15:50:15;8.05;;;1.30;;
22144;SDS011;11238;48.730;11.566;2023-01-09T15:52:42;4.70;;;1.45;;
22144;SDS011;11238;48.730;11.566;2023-01-09T15:55:19;6.38;;;1.30;;
22144;SDS011;11238;48.730;11.566;2023-01-09T15:57:52;4.70;;;1.30;;
22144;SDS011;11238;48.730;11.566;2023-01-09T16:00:22;6.30;;;1.30;;
22144;SDS011;11238;48.730;11.566;2023-01-09T16:02:54;2.15;;;1.10;;
22144;SDS011;11238;48.730;11.566;2023-01-09T16:05:40;4.30;;;1.40;;
22144;SDS011;11238;48.730;11.566;2023-01-09T16:08:17;4.15;;;1.30;;
22144;SDS011;11238;48.730;11.566;2023-01-09T16:10:49;3.65;;;1.25;;
22144;SDS011;11238;48.730;11.566;2023-01-09T16:13:17;3.65;;;1.38;;
22144;SDS011;11238;48.730;11.566;2023-01-09T16:15:44;3.80;;;1.30;;
22144;SDS011;11238;48.730;11.566;2023-01-09T16:21:03;3.85;;;1.20;;
22144;SDS011;11238;48.730;11.566;2023-01-09T16:23:50;4.03;;;1.20;;
22144;SDS011;11238;48.730;11.566;2023-01-09T16:26:22;2.35;;;1.23;;
22144;SDS011;11238;48.730;11.566;2023-01-09T16:28:49;3.28;;;1.00;;
22144;SDS011;11238;48.730;11.566;2023-01-09T16:31:28;1.98;;;0.98;;
22144;SDS011;11238;48.730;11.566;2023-01-09T16:33:59;4.20;;;1.20;;
22144;SDS011;11238;48.730;11.566;2023-01-09T16:36:32;3.20;;;1.30;;
22144;SDS011;11238;48.730;11.566;2023-01-09T16:38:59;3.85;;;1.48;;